createdAt,value
2023-02-24T00:00:39.880Z,2.93
2023-02-24T00:03:49.609Z,2.97
2023-02-24T00:06:51.646Z,3.02
2023-02-24T00:09:53.120Z,3.06
2023-02-24T00:12:54.628Z,3.09
2023-02-24T00:16:03.025Z,3.11
2023-02-24T00:19:05.623Z,3.13
2023-02-24T00:22:08.420Z,3.16
2023-02-24T00:25:10.037Z,3.19
2023-02-24T00:28:11.622Z,3.23
2023-02-24T00:31:14.393Z,3.27
2023-02-24T00:34:15.984Z,3.30
2023-02-24T00:37:17.657Z,3.33
2023-02-24T00:40:19.305Z,3.37
2023-02-24T00:43:20.864Z,3.38
2023-02-24T00:46:23.632Z,3.38
2023-02-24T00:49:25.219Z,3.39
2023-02-24T00:52:27.016Z,3.38
2023-02-24T00:55:28.694Z,3.37
2023-02-24T00:58:30.259Z,3.38
2023-02-24T01:01:33.530Z,3.39
2023-02-24T01:04:35.593Z,3.39
2023-02-24T01:07:37.872Z,3.39
2023-02-24T01:10:39.354Z,3.40
2023-02-24T01:13:41.354Z,3.40
2023-02-24T01:16:43.995Z,3.41
2023-02-24T01:19:46.761Z,3.42
2023-02-24T01:22:52.216Z,3.42
2023-02-24T01:25:53.887Z,3.43
2023-02-24T01:28:55.373Z,3.44
2023-02-24T01:31:57.601Z,3.46
2023-02-24T01:34:59.364Z,3.46
2023-02-24T01:38:01.102Z,3.47
2023-02-24T01:41:02.868Z,3.47
2023-02-24T01:44:29.992Z,3.51
2023-02-24T01:47:31.619Z,3.54
2023-02-24T01:50:34.848Z,3.56
2023-02-24T01:53:36.684Z,3.58
2023-02-24T01:56:39.008Z,3.61
2023-02-24T01:59:40.614Z,3.63
2023-02-24T02:02:46.752Z,3.66
2023-02-24T02:05:50.028Z,3.70
2023-02-24T02:08:52.225Z,3.71
2023-02-24T02:11:53.949Z,3.74
2023-02-24T02:14:56.165Z,3.80
2023-02-24T02:18:03.661Z,3.85
2023-02-24T02:21:08.421Z,3.98
2023-02-24T02:24:20.413Z,4.16
2023-02-24T02:27:24.916Z,4.43
2023-02-24T02:30:59.677Z,4.75
2023-02-24T02:34:24.517Z,5.21
2023-02-24T02:37:34.677Z,5.51
2023-02-24T02:40:42.900Z,5.76
2023-02-24T02:44:05.203Z,5.99
2023-02-24T02:47:14.649Z,6.22
2023-02-24T02:50:35.753Z,6.30
2023-02-24T02:53:48.477Z,6.39
2023-02-24T02:56:56.847Z,6.47
2023-02-24T03:00:20.052Z,6.51
2023-02-24T03:03:22.064Z,6.53
2023-02-24T03:06:29.550Z,6.51
2023-02-24T03:09:35.690Z,6.51
2023-02-24T03:12:40.017Z,6.48
2023-02-24T03:15:41.758Z,6.43
2023-02-24T03:18:57.997Z,6.40
2023-02-24T03:22:21.569Z,6.33
2023-02-24T03:25:26.283Z,6.32
2023-02-24T03:28:32.814Z,6.30
2023-02-24T03:31:37.216Z,6.30
2023-02-24T03:34:56.848Z,6.28
2023-02-24T03:37:59.248Z,6.27
2023-02-24T03:41:00.807Z,6.29
2023-02-24T03:44:02.331Z,6.30
2023-02-24T03:47:04.459Z,6.29
2023-02-24T03:50:17.885Z,6.32
2023-02-24T03:53:38.807Z,6.39
2023-02-24T03:56:50.260Z,6.42
2023-02-24T04:00:14.833Z,6.41
2023-02-24T04:03:35.150Z,6.37
2023-02-24T04:06:43.987Z,6.33
2023-02-24T04:10:07.647Z,6.28
2023-02-24T04:13:25.664Z,6.21
2023-02-24T04:16:30.932Z,6.15
2023-02-24T04:19:36.416Z,6.08
2023-02-24T04:22:39.222Z,6.02
2023-02-24T04:25:43.196Z,5.96
2023-02-24T04:28:45.655Z,5.93
2023-02-24T04:31:51.175Z,5.89
2023-02-24T04:34:53.163Z,5.85
2023-02-24T04:37:55.244Z,5.79
2023-02-24T04:40:56.929Z,5.77
2023-02-24T04:43:58.664Z,5.74
2023-02-24T04:47:00.137Z,5.68
2023-02-24T04:50:02.483Z,5.64
2023-02-24T04:53:07.426Z,5.63
2023-02-24T04:56:09.343Z,5.62
2023-02-24T04:59:11.821Z,5.60
2023-02-24T05:02:13.445Z,5.56
2023-02-24T05:05:15.589Z,5.45
2023-02-24T05:08:17.882Z,5.17
2023-02-24T05:11:20.043Z,4.95
2023-02-24T05:14:21.891Z,4.81
2023-02-24T05:17:23.383Z,4.69
2023-02-24T05:20:25.318Z,4.57
2023-02-24T05:23:38.366Z,4.44
2023-02-24T05:26:40.152Z,4.41
2023-02-24T05:29:41.726Z,4.33
2023-02-24T05:32:43.246Z,4.29
2023-02-24T05:35:45.061Z,4.24
2023-02-24T05:38:47.069Z,4.24
2023-02-24T05:41:49.883Z,4.23
2023-02-24T05:44:51.509Z,4.30
2023-02-24T05:47:52.969Z,4.39
2023-02-24T05:50:54.684Z,4.45
2023-02-24T05:53:56.209Z,4.48
2023-02-24T05:57:04.393Z,4.52
2023-02-24T06:00:06.712Z,4.53
2023-02-24T06:03:08.497Z,4.56
2023-02-24T06:06:10.360Z,4.66
2023-02-24T06:09:12.326Z,4.80
2023-02-24T06:12:14.004Z,4.86
2023-02-24T06:15:15.633Z,4.91
2023-02-24T06:18:17.187Z,4.96
2023-02-24T06:21:19.391Z,4.97
2023-02-24T06:24:21.195Z,4.92
2023-02-24T06:27:22.776Z,4.89
2023-02-24T06:30:25.798Z,4.90
2023-02-24T06:33:27.314Z,4.92
2023-02-24T06:36:28.865Z,5.06
2023-02-24T06:39:30.871Z,5.16
2023-02-24T06:42:32.300Z,5.25
2023-02-24T06:45:33.993Z,5.31
2023-02-24T06:48:35.511Z,5.39
2023-02-24T06:51:37.158Z,5.49
2023-02-24T06:54:38.783Z,5.57
2023-02-24T06:57:40.595Z,5.64
2023-02-24T07:00:42.174Z,5.72
2023-02-24T07:03:43.957Z,5.72
2023-02-24T07:06:48.338Z,5.65
2023-02-24T07:09:49.862Z,5.65
2023-02-24T07:12:51.394Z,5.71
2023-02-24T07:15:53.112Z,5.77
2023-02-24T07:18:55.185Z,5.81
2023-02-24T07:21:58.376Z,5.86
2023-02-24T07:24:59.949Z,5.93
2023-02-24T07:28:02.082Z,6.00
2023-02-24T07:31:06.267Z,6.04
2023-02-24T07:34:08.161Z,6.08
2023-02-24T07:37:11.694Z,6.10
2023-02-24T07:40:13.892Z,6.11
2023-02-24T07:43:16.704Z,6.11
2023-02-24T07:46:23.381Z,6.15
2023-02-24T07:49:25.691Z,6.20
2023-02-24T07:52:30.364Z,6.26
2023-02-24T07:55:34.345Z,6.30
2023-02-24T07:58:35.906Z,6.30
2023-02-24T08:01:37.997Z,6.31
2023-02-24T08:04:39.745Z,6.32
2023-02-24T08:07:41.430Z,6.34
2023-02-24T08:10:43.168Z,6.37
2023-02-24T08:13:45.053Z,6.40
2023-02-24T08:16:49.227Z,6.42
2023-02-24T08:19:51.929Z,6.45
2023-02-24T08:22:54.514Z,6.49
2023-02-24T08:25:56.114Z,6.53
2023-02-24T08:28:58.413Z,6.56
2023-02-24T08:32:00.355Z,6.60
2023-02-24T08:35:05.130Z,6.63
2023-02-24T08:38:15.087Z,6.69
2023-02-24T08:41:18.839Z,6.79
2023-02-24T08:44:20.579Z,6.91
2023-02-24T08:47:22.319Z,7.02
2023-02-24T08:50:24.144Z,7.17
2023-02-24T08:53:25.748Z,7.31
2023-02-24T08:56:32.432Z,7.43
2023-02-24T08:59:36.610Z,7.58
2023-02-24T09:02:38.191Z,7.70
2023-02-24T09:05:40.084Z,7.70
2023-02-24T09:08:43.010Z,7.69
2023-02-24T09:11:46.945Z,7.67
2023-02-24T09:14:49.632Z,7.72
2023-02-24T09:17:51.986Z,7.81
2023-02-24T09:20:53.458Z,7.81
2023-02-24T09:23:55.010Z,7.76
2023-02-24T09:26:57.104Z,7.70
2023-02-24T09:29:58.937Z,7.71
2023-02-24T09:33:00.668Z,7.69
2023-02-24T09:36:05.667Z,7.72
2023-02-24T09:39:08.390Z,7.77
2023-02-24T09:42:12.119Z,7.84
2023-02-24T09:45:20.773Z,7.91
2023-02-24T09:48:37.478Z,7.90
2023-02-24T09:51:39.100Z,7.96
2023-02-24T09:54:40.876Z,7.94
2023-02-24T09:58:07.477Z,7.84
2023-02-24T10:01:15.338Z,7.80
2023-02-24T10:04:43.996Z,7.86
2023-02-24T10:07:46.497Z,7.81
2023-02-24T10:10:48.355Z,7.75
2023-02-24T10:13:53.794Z,7.71
2023-02-24T10:16:56.613Z,7.71
2023-02-24T10:20:11.626Z,7.78
2023-02-24T10:23:20.148Z,7.81
2023-02-24T10:27:07.921Z,7.82
2023-02-24T10:30:30.806Z,7.78
2023-02-24T10:33:38.690Z,7.81
2023-02-24T10:36:40.412Z,7.77
2023-02-24T10:39:42.155Z,7.81
2023-02-24T10:42:43.950Z,7.93
2023-02-24T10:45:47.469Z,8.01
2023-02-24T10:48:57.500Z,8.11
2023-02-24T10:51:59.219Z,8.22
2023-02-24T10:55:00.775Z,8.33
2023-02-24T10:58:03.199Z,8.39
2023-02-24T11:01:16.061Z,8.46
2023-02-24T11:04:18.775Z,8.67
2023-02-24T11:07:20.971Z,8.88
2023-02-24T11:10:24.301Z,9.05
2023-02-24T11:13:26.537Z,9.28
2023-02-24T11:16:28.184Z,9.37
2023-02-24T11:19:31.551Z,9.49
2023-02-24T11:22:40.078Z,9.64
2023-02-24T11:25:46.217Z,9.84
2023-02-24T11:29:03.899Z,10.04
2023-02-24T11:32:27.735Z,10.26
2023-02-24T11:35:33.599Z,10.53
2023-02-24T11:39:21.757Z,11.05
2023-02-24T11:42:46.248Z,11.50
2023-02-24T11:45:54.663Z,11.09
2023-02-24T11:48:58.617Z,10.83
2023-02-24T11:52:01.303Z,11.34
2023-02-24T11:55:05.464Z,12.20
2023-02-24T11:58:17.138Z,12.23
2023-02-24T12:01:28.029Z,12.38
2023-02-24T12:04:36.724Z,12.69
2023-02-24T12:07:42.730Z,12.68
2023-02-24T12:10:49.926Z,12.55
2023-02-24T12:14:04.625Z,12.48
2023-02-24T12:17:33.968Z,12.45
2023-02-24T12:20:51.396Z,12.11
2023-02-24T12:23:53.011Z,11.74
2023-02-24T12:27:19.513Z,11.49
2023-02-24T12:30:21.127Z,11.56
2023-02-24T12:33:35.713Z,11.54
2023-02-24T12:36:53.844Z,11.32
2023-02-24T12:40:01.446Z,11.04
2023-02-24T12:43:36.134Z,10.84
2023-02-24T12:46:38.969Z,10.48
2023-02-24T12:49:59.413Z,10.21
2023-02-24T12:53:19.592Z,10.05
2023-02-24T12:56:25.250Z,9.92
2023-02-24T12:59:32.246Z,9.86
2023-02-24T13:02:44.926Z,9.90
2023-02-24T13:05:52.750Z,9.88
2023-02-24T13:09:15.564Z,9.87
2023-02-24T13:12:38.950Z,9.86
2023-02-24T13:15:50.455Z,9.86
2023-02-24T13:18:52.127Z,9.94
2023-02-24T13:22:17.021Z,9.88
2023-02-24T13:25:21.591Z,9.90
2023-02-24T13:28:34.027Z,9.95
2023-02-24T13:31:44.573Z,9.93
2023-02-24T13:34:46.612Z,9.87
2023-02-24T13:37:48.607Z,9.81
2023-02-24T13:40:50.276Z,9.66
2023-02-24T13:44:00.361Z,9.55
2023-02-24T13:47:13.333Z,9.46
2023-02-24T13:50:24.042Z,9.29
2023-02-24T13:54:12.416Z,9.23
2023-02-24T13:57:35.687Z,9.45
2023-02-24T14:01:02.753Z,9.77
2023-02-24T14:04:39.263Z,9.82
2023-02-24T14:07:40.900Z,9.70
2023-02-24T14:10:44.650Z,9.68
2023-02-24T14:13:50.166Z,9.61
2023-02-24T14:16:51.940Z,9.49
2023-02-24T14:19:53.640Z,9.41
2023-02-24T14:22:57.745Z,9.38
2023-02-24T14:26:00.202Z,9.32
2023-02-24T14:29:02.317Z,9.31
2023-02-24T14:32:04.002Z,9.32
2023-02-24T14:35:06.027Z,9.27
2023-02-24T14:38:37.582Z,9.17
2023-02-24T14:41:39.299Z,9.06
2023-02-24T14:44:50.097Z,9.02
2023-02-24T14:47:53.268Z,9.05
2023-02-24T14:51:04.632Z,9.09
2023-02-24T14:54:08.110Z,9.13
2023-02-24T14:57:17.605Z,9.14
2023-02-24T15:00:25.387Z,9.11
2023-02-24T15:03:29.709Z,9.16
2023-02-24T15:06:33.297Z,9.19
2023-02-24T15:09:42.394Z,9.18
2023-02-24T15:12:46.832Z,9.13
2023-02-24T15:15:48.428Z,9.10
2023-02-24T15:18:55.287Z,9.01
2023-02-24T15:21:56.991Z,8.98
2023-02-24T15:25:24.065Z,8.95
2023-02-24T15:28:37.416Z,8.95
2023-02-24T15:31:39.401Z,8.91
2023-02-24T15:34:44.675Z,8.85
2023-02-24T15:37:46.269Z,8.77
2023-02-24T15:40:53.595Z,8.68
2023-02-24T15:43:55.461Z,8.61
2023-02-24T15:46:58.729Z,8.59
2023-02-24T15:50:00.412Z,8.55
2023-02-24T15:53:04.359Z,8.50
2023-02-24T15:56:06.057Z,8.43
2023-02-24T15:59:07.992Z,8.29
2023-02-24T16:02:14.785Z,8.20
2023-02-24T16:05:16.570Z,8.15
2023-02-24T16:08:19.600Z,8.10
2023-02-24T16:11:25.582Z,8.03
2023-02-24T16:14:27.239Z,7.99
2023-02-24T16:17:41.748Z,7.94
2023-02-24T16:20:43.803Z,7.82
2023-02-24T16:23:45.528Z,7.59
2023-02-24T16:26:47.109Z,7.36
2023-02-24T16:29:49.824Z,7.24
2023-02-24T16:32:51.718Z,7.15
2023-02-24T16:35:53.709Z,7.07
2023-02-24T16:38:55.247Z,6.97
2023-02-24T16:41:56.717Z,6.90
2023-02-24T16:44:58.285Z,6.83
2023-02-24T16:48:02.514Z,6.75
2023-02-24T16:51:06.220Z,6.72
2023-02-24T16:54:07.836Z,6.69
2023-02-24T16:57:09.983Z,6.61
2023-02-24T17:00:13.963Z,6.54
2023-02-24T17:03:41.766Z,6.39
2023-02-24T17:06:43.314Z,6.25
2023-02-24T17:09:44.895Z,6.11
2023-02-24T17:12:46.540Z,6.04
2023-02-24T17:15:50.666Z,6.04
2023-02-24T17:18:52.228Z,6.01
2023-02-24T17:21:53.798Z,5.93
2023-02-24T17:24:55.503Z,5.82
2023-02-24T17:27:57.856Z,5.76
2023-02-24T17:30:59.555Z,5.74
2023-02-24T17:34:01.262Z,5.70
2023-02-24T17:37:02.712Z,5.72
2023-02-24T17:40:06.552Z,5.72
2023-02-24T17:43:08.584Z,5.67
2023-02-24T17:46:10.189Z,5.61
2023-02-24T17:49:11.765Z,5.53
2023-02-24T17:52:13.414Z,5.49
2023-02-24T17:55:15.300Z,5.49
2023-02-24T17:58:16.964Z,5.49
2023-02-24T18:01:18.490Z,5.56
2023-02-24T18:04:20.047Z,5.54
2023-02-24T18:07:21.604Z,5.58
2023-02-24T18:10:23.129Z,5.62
2023-02-24T18:13:25.819Z,5.65
2023-02-24T18:16:28.143Z,5.67
2023-02-24T18:19:29.956Z,5.70
2023-02-24T18:22:31.605Z,5.82
2023-02-24T18:25:33.696Z,5.90
2023-02-24T18:28:35.489Z,5.96
2023-02-24T18:31:37.197Z,5.92
2023-02-24T18:34:39.184Z,5.89
2023-02-24T18:37:40.755Z,5.97
2023-02-24T18:40:42.307Z,5.95
2023-02-24T18:43:47.281Z,5.98
2023-02-24T18:46:48.949Z,6.09
2023-02-24T18:49:50.613Z,6.17
2023-02-24T18:52:52.047Z,6.21
2023-02-24T18:56:05.179Z,6.22
2023-02-24T18:59:06.820Z,6.26
2023-02-24T19:02:09.483Z,6.33
2023-02-24T19:05:11.238Z,6.39
2023-02-24T19:08:12.870Z,6.40
2023-02-24T19:11:16.899Z,6.33
2023-02-24T19:14:19.262Z,6.26
2023-02-24T19:17:21.065Z,6.22
2023-02-24T19:20:22.596Z,6.16
2023-02-24T19:23:24.318Z,6.09
2023-02-24T19:26:28.026Z,6.02
2023-02-24T19:29:29.680Z,5.97
2023-02-24T19:32:31.254Z,5.93
2023-02-24T19:35:34.063Z,5.88
2023-02-24T19:38:36.107Z,5.84
2023-02-24T19:41:37.631Z,5.74
2023-02-24T19:44:39.150Z,5.57
2023-02-24T19:47:41.183Z,5.37
2023-02-24T19:50:42.782Z,5.30
2023-02-24T19:53:44.995Z,5.25
2023-02-24T19:56:46.624Z,5.24
2023-02-24T19:59:50.235Z,5.22
2023-02-24T20:02:52.382Z,5.18
2023-02-24T20:05:54.117Z,5.23
2023-02-24T20:08:56.386Z,5.29
2023-02-24T20:11:57.993Z,5.42
2023-02-24T20:14:59.516Z,5.50
2023-02-24T20:18:01.087Z,5.51
2023-02-24T20:21:02.865Z,5.59
2023-02-24T20:24:05.729Z,5.63
2023-02-24T20:27:07.290Z,5.57
2023-02-24T20:30:09.313Z,5.55
2023-02-24T20:33:11.013Z,5.54
2023-02-24T20:36:14.317Z,5.58
2023-02-24T20:39:16.580Z,5.58
2023-02-24T20:42:18.201Z,5.53
2023-02-24T20:45:19.742Z,5.49
2023-02-24T20:48:21.299Z,5.44
2023-02-24T20:51:23.229Z,5.38
2023-02-24T20:54:25.891Z,5.41
2023-02-24T20:57:27.971Z,5.53
2023-02-24T21:00:29.557Z,5.57
2023-02-24T21:03:31.013Z,5.71
2023-02-24T21:06:32.680Z,5.77
2023-02-24T21:09:34.229Z,5.78
2023-02-24T21:12:35.930Z,5.79
2023-02-24T21:15:37.632Z,5.79
2023-02-24T21:18:40.767Z,5.82
2023-02-24T21:21:42.320Z,5.87
2023-02-24T21:24:44.074Z,5.91
2023-02-24T21:27:45.983Z,5.90
2023-02-24T21:30:47.903Z,5.79
2023-02-24T21:33:51.266Z,5.81
2023-02-24T21:36:52.839Z,5.87
2023-02-24T21:39:54.378Z,5.92
2023-02-24T21:42:56.012Z,5.97
2023-02-24T21:46:00.636Z,6.07
2023-02-24T21:49:02.434Z,6.18
2023-02-24T21:52:04.050Z,6.28
2023-02-24T21:55:07.220Z,6.24
2023-02-24T21:58:08.835Z,6.24
2023-02-24T22:01:11.211Z,6.29
2023-02-24T22:04:15.810Z,6.36
2023-02-24T22:07:17.402Z,6.51
2023-02-24T22:10:21.681Z,6.67
2023-02-24T22:13:23.191Z,6.88
2023-02-24T22:16:25.622Z,6.90
2023-02-24T22:19:27.757Z,6.94
2023-02-24T22:22:29.492Z,7.06
2023-02-24T22:25:31.023Z,7.03
2023-02-24T22:28:36.562Z,7.05
2023-02-24T22:31:38.267Z,7.00
2023-02-24T22:34:39.873Z,6.94
2023-02-24T22:37:41.360Z,6.89
2023-02-24T22:40:42.930Z,6.83
2023-02-24T22:43:44.725Z,6.81
2023-02-24T22:46:46.960Z,6.76
2023-02-24T22:49:48.629Z,6.67
2023-02-24T22:52:50.169Z,6.36
2023-02-24T22:55:52.313Z,6.10
2023-02-24T22:58:53.917Z,5.96
2023-02-24T23:01:55.422Z,5.98
2023-02-24T23:04:57.036Z,5.93
2023-02-24T23:07:58.476Z,5.90
2023-02-24T23:11:09.445Z,5.88
2023-02-24T23:14:12.981Z,5.86
2023-02-24T23:17:14.736Z,5.93
2023-02-24T23:20:16.984Z,6.00
2023-02-24T23:23:18.532Z,5.97
2023-02-24T23:26:20.486Z,5.97
2023-02-24T23:29:23.561Z,5.97
2023-02-24T23:32:25.292Z,5.87
2023-02-24T23:35:27.021Z,5.88
2023-02-24T23:38:28.578Z,5.90
2023-02-24T23:41:30.151Z,5.91
2023-02-24T23:44:31.619Z,5.75
2023-02-24T23:47:33.365Z,5.80
2023-02-24T23:50:38.855Z,5.88
2023-02-24T23:53:42.482Z,5.85
2023-02-24T23:56:44.146Z,5.80
2023-02-24T23:59:45.848Z,5.78
